sensor_id;sensor_type;location;lat;lon;timestamp;P1;durP1;ratioP1;P2;durP2;ratioP2
63012;SDS011;62113;45.624;11.700;2023-04-06T00:01:06;15.55;;;8.25;;
63012;SDS011;62113;45.624;11.700;2023-04-06T00:03:32;13.40;;;7.15;;
63012;SDS011;62113;45.624;11.700;2023-04-06T00:05:58;18.25;;;7.88;;
63012;SDS011;62113;45.624;11.700;2023-04-06T00:08:23;16.90;;;7.10;;
63012;SDS011;62113;45.624;11.700;2023-04-06T00:10:49;16.45;;;7.80;;
63012;SDS011;62113;45.624;11.700;2023-04-06T00:13:15;15.57;;;7.07;;
63012;SDS011;62113;45.624;11.700;2023-04-06T00:15:40;14.73;;;8.32;;
63012;SDS011;62113;45.624;11.700;2023-04-06T00:18:06;11.52;;;7.75;;
63012;SDS011;62113;45.624;11.700;2023-04-06T00:20:32;15.43;;;8.25;;
63012;SDS011;62113;45.624;11.700;2023-04-06T00:22:57;13.15;;;8.05;;
63012;SDS011;62113;45.624;11.700;2023-04-06T00:25:23;17.63;;;7.75;;
63012;SDS011;62113;45.624;11.700;2023-04-06T00:27:49;17.35;;;9.45;;
63012;SDS011;62113;45.624;11.700;2023-04-06T00:30:15;12.85;;;8.38;;
63012;SDS011;62113;45.624;11.700;2023-04-06T00:32:40;15.77;;;9.02;;
63012;SDS011;62113;45.624;11.700;2023-04-06T00:35:06;20.08;;;8.30;;
63012;SDS011;62113;45.624;11.700;2023-04-06T00:37:32;18.15;;;9.02;;
63012;SDS011;62113;45.624;11.700;2023-04-06T00:39:57;17.33;;;8.70;;
63012;SDS011;62113;45.624;11.700;2023-04-06T00:42:23;14.75;;;8.48;;
63012;SDS011;62113;45.624;11.700;2023-04-06T00:44:55;16.02;;;9.07;;
63012;SDS011;62113;45.624;11.700;2023-04-06T00:47:22;14.75;;;8.93;;
63012;SDS011;62113;45.624;11.700;2023-04-06T00:49:50;17.70;;;9.25;;
63012;SDS011;62113;45.624;11.700;2023-04-06T00:52:17;15.27;;;9.07;;
63012;SDS011;62113;45.624;11.700;2023-04-06T00:54:43;13.65;;;9.57;;
63012;SDS011;62113;45.624;11.700;2023-04-06T00:57:09;23.33;;;9.43;;
63012;SDS011;62113;45.624;11.700;2023-04-06T00:59:36;18.40;;;9.43;;
63012;SDS011;62113;45.624;11.700;2023-04-06T01:02:01;21.10;;;9.20;;
63012;SDS011;62113;45.624;11.700;2023-04-06T01:04:27;17.42;;;10.40;;
63012;SDS011;62113;45.624;11.700;2023-04-06T01:06:53;18.95;;;9.98;;
63012;SDS011;62113;45.624;11.700;2023-04-06T01:09:18;19.77;;;10.48;;
63012;SDS011;62113;45.624;11.700;2023-04-06T01:11:44;17.00;;;10.07;;
63012;SDS011;62113;45.624;11.700;2023-04-06T01:14:10;21.05;;;9.95;;
63012;SDS011;62113;45.624;11.700;2023-04-06T01:16:36;19.65;;;10.15;;
63012;SDS011;62113;45.624;11.700;2023-04-06T01:19:11;18.75;;;9.98;;
63012;SDS011;62113;45.624;11.700;2023-04-06T01:21:38;16.35;;;9.68;;
63012;SDS011;62113;45.624;11.700;2023-04-06T01:24:04;18.52;;;9.98;;
63012;SDS011;62113;45.624;11.700;2023-04-06T01:26:31;22.95;;;10.10;;
63012;SDS011;62113;45.624;11.700;2023-04-06T01:28:57;14.38;;;9.63;;
63012;SDS011;62113;45.624;11.700;2023-04-06T01:31:23;18.27;;;10.20;;
63012;SDS011;62113;45.624;11.700;2023-04-06T01:33:49;18.70;;;10.18;;
63012;SDS011;62113;45.624;11.700;2023-04-06T01:36:15;14.52;;;10.15;;
63012;SDS011;62113;45.624;11.700;2023-04-06T01:38:41;14.32;;;9.45;;
63012;SDS011;62113;45.624;11.700;2023-04-06T01:41:07;18.17;;;9.55;;
63012;SDS011;62113;45.624;11.700;2023-04-06T01:43:33;21.27;;;10.18;;
63012;SDS011;62113;45.624;11.700;2023-04-06T01:45:59;17.38;;;9.57;;
63012;SDS011;62113;45.624;11.700;2023-04-06T01:48:26;17.03;;;10.37;;
63012;SDS011;62113;45.624;11.700;2023-04-06T01:50:52;20.20;;;10.07;;
63012;SDS011;62113;45.624;11.700;2023-04-06T01:53:18;18.33;;;10.40;;
63012;SDS011;62113;45.624;11.700;2023-04-06T01:55:44;18.50;;;10.13;;
63012;SDS011;62113;45.624;11.700;2023-04-06T01:58:10;19.02;;;10.77;;
63012;SDS011;62113;45.624;11.700;2023-04-06T02:00:36;17.35;;;10.63;;
63012;SDS011;62113;45.624;11.700;2023-04-06T02:03:01;20.33;;;10.20;;
63012;SDS011;62113;45.624;11.700;2023-04-06T02:05:28;14.43;;;9.40;;
63012;SDS011;62113;45.624;11.700;2023-04-06T02:07:55;15.63;;;9.05;;
63012;SDS011;62113;45.624;11.700;2023-04-06T02:10:21;14.43;;;8.90;;
63012;SDS011;62113;45.624;11.700;2023-04-06T02:12:47;14.37;;;8.40;;
63012;SDS011;62113;45.624;11.700;2023-04-06T02:15:13;13.13;;;8.43;;
63012;SDS011;62113;45.624;11.700;2023-04-06T02:17:39;18.52;;;9.38;;
63012;SDS011;62113;45.624;11.700;2023-04-06T02:20:06;12.38;;;9.00;;
63012;SDS011;62113;45.624;11.700;2023-04-06T02:22:32;15.75;;;8.70;;
63012;SDS011;62113;45.624;11.700;2023-04-06T02:24:57;13.38;;;8.45;;
63012;SDS011;62113;45.624;11.700;2023-04-06T02:27:23;14.88;;;9.32;;
63012;SDS011;62113;45.624;11.700;2023-04-06T02:29:49;16.35;;;8.77;;
63012;SDS011;62113;45.624;11.700;2023-04-06T02:32:15;18.25;;;8.18;;
63012;SDS011;62113;45.624;11.700;2023-04-06T02:34:40;11.90;;;7.80;;
63012;SDS011;62113;45.624;11.700;2023-04-06T02:37:06;12.95;;;7.95;;
63012;SDS011;62113;45.624;11.700;2023-04-06T02:39:32;15.82;;;8.20;;
63012;SDS011;62113;45.624;11.700;2023-04-06T02:41:57;13.57;;;7.50;;
63012;SDS011;62113;45.624;11.700;2023-04-06T02:44:23;16.13;;;7.78;;
63012;SDS011;62113;45.624;11.700;2023-04-06T02:46:49;16.13;;;7.95;;
63012;SDS011;62113;45.624;11.700;2023-04-06T02:49:15;14.03;;;7.70;;
63012;SDS011;62113;45.624;11.700;2023-04-06T02:51:41;16.35;;;7.72;;
63012;SDS011;62113;45.624;11.700;2023-04-06T02:54:06;14.15;;;7.35;;
63012;SDS011;62113;45.624;11.700;2023-04-06T02:56:32;11.07;;;7.15;;
63012;SDS011;62113;45.624;11.700;2023-04-06T02:58:58;15.20;;;7.35;;
63012;SDS011;62113;45.624;11.700;2023-04-06T03:01:23;8.18;;;6.78;;
63012;SDS011;62113;45.624;11.700;2023-04-06T03:03:49;11.15;;;6.85;;
63012;SDS011;62113;45.624;11.700;2023-04-06T03:06:15;15.95;;;7.05;;
63012;SDS011;62113;45.624;11.700;2023-04-06T03:08:40;18.13;;;7.13;;
63012;SDS011;62113;45.624;11.700;2023-04-06T03:11:06;11.68;;;6.57;;
63012;SDS011;62113;45.624;11.700;2023-04-06T03:13:32;9.98;;;7.32;;
63012;SDS011;62113;45.624;11.700;2023-04-06T03:15:57;11.95;;;6.63;;
63012;SDS011;62113;45.624;11.700;2023-04-06T03:18:24;15.07;;;7.38;;
63012;SDS011;62113;45.624;11.700;2023-04-06T03:20:50;9.55;;;6.78;;
63012;SDS011;62113;45.624;11.700;2023-04-06T03:23:18;13.18;;;6.75;;
63012;SDS011;62113;45.624;11.700;2023-04-06T03:28:11;11.73;;;6.50;;
63012;SDS011;62113;45.624;11.700;2023-04-06T03:30:37;18.00;;;7.53;;
63012;SDS011;62113;45.624;11.700;2023-04-06T03:33:02;12.02;;;6.95;;
63012;SDS011;62113;45.624;11.700;2023-04-06T03:35:28;13.60;;;7.70;;
63012;SDS011;62113;45.624;11.700;2023-04-06T03:37:54;11.57;;;7.72;;
63012;SDS011;62113;45.624;11.700;2023-04-06T03:40:20;17.45;;;8.40;;
63012;SDS011;62113;45.624;11.700;2023-04-06T03:42:45;12.88;;;8.38;;
63012;SDS011;62113;45.624;11.700;2023-04-06T03:45:11;21.35;;;9.10;;
63012;SDS011;62113;45.624;11.700;2023-04-06T03:47:40;18.73;;;10.15;;
63012;SDS011;62113;45.624;11.700;2023-04-06T03:50:05;14.93;;;9.85;;
63012;SDS011;62113;45.624;11.700;2023-04-06T03:52:31;20.42;;;9.73;;
63012;SDS011;62113;45.624;11.700;2023-04-06T03:54:57;21.95;;;9.75;;
63012;SDS011;62113;45.624;11.700;2023-04-06T03:57:23;18.35;;;10.35;;
63012;SDS011;62113;45.624;11.700;2023-04-06T03:59:48;14.55;;;9.35;;
63012;SDS011;62113;45.624;11.700;2023-04-06T04:02:14;14.75;;;9.25;;
63012;SDS011;62113;45.624;11.700;2023-04-06T04:04:40;13.48;;;9.00;;
63012;SDS011;62113;45.624;11.700;2023-04-06T04:07:05;19.08;;;9.90;;
63012;SDS011;62113;45.624;11.700;2023-04-06T04:09:31;12.13;;;9.23;;
63012;SDS011;62113;45.624;11.700;2023-04-06T04:11:56;17.40;;;9.35;;
63012;SDS011;62113;45.624;11.700;2023-04-06T04:14:22;14.18;;;9.73;;
63012;SDS011;62113;45.624;11.700;2023-04-06T04:16:48;15.40;;;8.77;;
63012;SDS011;62113;45.624;11.700;2023-04-06T04:19:13;20.35;;;9.55;;
63012;SDS011;62113;45.624;11.700;2023-04-06T04:21:44;22.05;;;10.38;;
63012;SDS011;62113;45.624;11.700;2023-04-06T04:24:11;26.75;;;10.05;;
63012;SDS011;62113;45.624;11.700;2023-04-06T04:26:37;15.52;;;9.43;;
63012;SDS011;62113;45.624;11.700;2023-04-06T04:29:03;13.73;;;8.20;;
63012;SDS011;62113;45.624;11.700;2023-04-06T04:31:29;12.65;;;8.45;;
63012;SDS011;62113;45.624;11.700;2023-04-06T04:33:55;21.42;;;9.70;;
63012;SDS011;62113;45.624;11.700;2023-04-06T04:36:20;19.23;;;9.60;;
63012;SDS011;62113;45.624;11.700;2023-04-06T04:38:46;20.35;;;9.13;;
63012;SDS011;62113;45.624;11.700;2023-04-06T04:41:12;13.27;;;8.40;;
63012;SDS011;62113;45.624;11.700;2023-04-06T04:43:37;16.73;;;9.27;;
63012;SDS011;62113;45.624;11.700;2023-04-06T04:46:04;18.38;;;9.73;;
63012;SDS011;62113;45.624;11.700;2023-04-06T04:48:29;20.27;;;9.60;;
63012;SDS011;62113;45.624;11.700;2023-04-06T04:50:55;21.48;;;9.45;;
63012;SDS011;62113;45.624;11.700;2023-04-06T04:53:21;18.08;;;9.73;;
63012;SDS011;62113;45.624;11.700;2023-04-06T04:55:46;17.50;;;8.48;;
63012;SDS011;62113;45.624;11.700;2023-04-06T04:58:12;12.88;;;8.73;;
63012;SDS011;62113;45.624;11.700;2023-04-06T05:00:41;20.80;;;9.50;;
63012;SDS011;62113;45.624;11.700;2023-04-06T05:03:07;14.83;;;9.53;;
63012;SDS011;62113;45.624;11.700;2023-04-06T05:05:39;18.33;;;9.15;;
63012;SDS011;62113;45.624;11.700;2023-04-06T05:08:04;16.20;;;8.75;;
63012;SDS011;62113;45.624;11.700;2023-04-06T05:10:30;18.15;;;9.57;;
63012;SDS011;62113;45.624;11.700;2023-04-06T05:12:55;14.98;;;9.18;;
63012;SDS011;62113;45.624;11.700;2023-04-06T05:15:21;21.25;;;10.30;;
63012;SDS011;62113;45.624;11.700;2023-04-06T05:17:47;19.17;;;9.57;;
63012;SDS011;62113;45.624;11.700;2023-04-06T05:20:13;18.88;;;9.23;;
63012;SDS011;62113;45.624;11.700;2023-04-06T05:22:38;21.17;;;9.80;;
63012;SDS011;62113;45.624;11.700;2023-04-06T05:25:04;20.23;;;10.77;;
63012;SDS011;62113;45.624;11.700;2023-04-06T05:27:30;20.23;;;8.95;;
63012;SDS011;62113;45.624;11.700;2023-04-06T05:29:55;17.08;;;9.07;;
63012;SDS011;62113;45.624;11.700;2023-04-06T05:32:21;23.60;;;9.75;;
63012;SDS011;62113;45.624;11.700;2023-04-06T05:34:49;18.00;;;9.13;;
63012;SDS011;62113;45.624;11.700;2023-04-06T05:37:15;23.30;;;10.70;;
63012;SDS011;62113;45.624;11.700;2023-04-06T05:39:41;19.90;;;9.63;;
63012;SDS011;62113;45.624;11.700;2023-04-06T05:42:06;18.98;;;9.27;;
63012;SDS011;62113;45.624;11.700;2023-04-06T05:44:32;19.98;;;9.25;;
63012;SDS011;62113;45.624;11.700;2023-04-06T05:46:58;14.07;;;8.27;;
63012;SDS011;62113;45.624;11.700;2023-04-06T05:49:23;19.38;;;9.85;;
63012;SDS011;62113;45.624;11.700;2023-04-06T05:51:49;16.65;;;9.30;;
63012;SDS011;62113;45.624;11.700;2023-04-06T05:54:15;19.63;;;10.27;;
63012;SDS011;62113;45.624;11.700;2023-04-06T05:56:40;15.95;;;9.45;;
63012;SDS011;62113;45.624;11.700;2023-04-06T05:59:06;22.67;;;10.38;;
63012;SDS011;62113;45.624;11.700;2023-04-06T06:01:32;26.13;;;12.38;;
63012;SDS011;62113;45.624;11.700;2023-04-06T06:04:00;27.70;;;13.45;;
63012;SDS011;62113;45.624;11.700;2023-04-06T06:06:26;24.92;;;12.55;;
63012;SDS011;62113;45.624;11.700;2023-04-06T06:08:53;25.02;;;10.15;;
63012;SDS011;62113;45.624;11.700;2023-04-06T06:11:20;27.35;;;10.73;;
63012;SDS011;62113;45.624;11.700;2023-04-06T06:13:46;29.98;;;13.45;;
63012;SDS011;62113;45.624;11.700;2023-04-06T06:16:11;33.47;;;14.70;;
63012;SDS011;62113;45.624;11.700;2023-04-06T06:18:37;32.80;;;14.93;;
63012;SDS011;62113;45.624;11.700;2023-04-06T06:21:02;38.85;;;15.77;;
63012;SDS011;62113;45.624;11.700;2023-04-06T06:23:29;54.37;;;19.33;;
63012;SDS011;62113;45.624;11.700;2023-04-06T06:25:54;66.27;;;17.37;;
63012;SDS011;62113;45.624;11.700;2023-04-06T06:28:22;47.20;;;16.85;;
63012;SDS011;62113;45.624;11.700;2023-04-06T06:30:50;27.65;;;9.70;;
63012;SDS011;62113;45.624;11.700;2023-04-06T06:33:16;16.30;;;7.60;;
63012;SDS011;62113;45.624;11.700;2023-04-06T06:35:42;13.20;;;7.13;;
63012;SDS011;62113;45.624;11.700;2023-04-06T06:38:08;22.13;;;7.80;;
63012;SDS011;62113;45.624;11.700;2023-04-06T06:40:34;16.90;;;7.90;;
63012;SDS011;62113;45.624;11.700;2023-04-06T06:42:59;15.43;;;7.30;;
63012;SDS011;62113;45.624;11.700;2023-04-06T06:45:25;15.77;;;7.63;;
63012;SDS011;62113;45.624;11.700;2023-04-06T06:47:51;12.20;;;6.57;;
63012;SDS011;62113;45.624;11.700;2023-04-06T06:50:16;11.95;;;6.32;;
63012;SDS011;62113;45.624;11.700;2023-04-06T06:52:42;14.67;;;6.83;;
63012;SDS011;62113;45.624;11.700;2023-04-06T06:55:09;13.07;;;7.07;;
63012;SDS011;62113;45.624;11.700;2023-04-06T06:57:35;13.23;;;5.30;;
63012;SDS011;62113;45.624;11.700;2023-04-06T07:00:00;9.90;;;5.60;;
63012;SDS011;62113;45.624;11.700;2023-04-06T07:02:26;9.18;;;5.10;;
63012;SDS011;62113;45.624;11.700;2023-04-06T07:04:52;7.13;;;5.27;;
63012;SDS011;62113;45.624;11.700;2023-04-06T07:07:17;8.77;;;5.70;;
63012;SDS011;62113;45.624;11.700;2023-04-06T07:09:43;19.83;;;5.40;;
63012;SDS011;62113;45.624;11.700;2023-04-06T07:12:09;11.15;;;5.20;;
63012;SDS011;62113;45.624;11.700;2023-04-06T07:14:35;10.05;;;5.63;;
63012;SDS011;62113;45.624;11.700;2023-04-06T07:17:01;15.23;;;5.50;;
63012;SDS011;62113;45.624;11.700;2023-04-06T07:19:27;10.18;;;5.07;;
63012;SDS011;62113;45.624;11.700;2023-04-06T07:21:53;10.48;;;5.05;;
63012;SDS011;62113;45.624;11.700;2023-04-06T07:24:19;6.03;;;4.80;;
63012;SDS011;62113;45.624;11.700;2023-04-06T07:26:44;15.07;;;4.60;;
63012;SDS011;62113;45.624;11.700;2023-04-06T07:29:10;8.25;;;4.90;;
63012;SDS011;62113;45.624;11.700;2023-04-06T07:31:37;7.03;;;4.88;;
63012;SDS011;62113;45.624;11.700;2023-04-06T07:34:03;10.52;;;5.32;;
63012;SDS011;62113;45.624;11.700;2023-04-06T07:36:29;12.65;;;7.63;;
63012;SDS011;62113;45.624;11.700;2023-04-06T07:38:54;8.75;;;6.15;;
63012;SDS011;62113;45.624;11.700;2023-04-06T07:41:20;11.93;;;5.32;;
63012;SDS011;62113;45.624;11.700;2023-04-06T07:43:46;9.50;;;5.20;;
63012;SDS011;62113;45.624;11.700;2023-04-06T07:46:11;9.45;;;5.28;;
63012;SDS011;62113;45.624;11.700;2023-04-06T07:48:37;13.52;;;5.88;;
63012;SDS011;62113;45.624;11.700;2023-04-06T07:51:03;7.38;;;4.15;;
63012;SDS011;62113;45.624;11.700;2023-04-06T07:53:30;12.40;;;5.75;;
63012;SDS011;62113;45.624;11.700;2023-04-06T07:55:56;7.47;;;4.57;;
63012;SDS011;62113;45.624;11.700;2023-04-06T07:58:23;11.13;;;4.30;;
63012;SDS011;62113;45.624;11.700;2023-04-06T08:00:48;7.10;;;3.78;;
63012;SDS011;62113;45.624;11.700;2023-04-06T08:03:14;8.23;;;4.50;;
63012;SDS011;62113;45.624;11.700;2023-04-06T08:05:41;8.38;;;4.78;;
63012;SDS011;62113;45.624;11.700;2023-04-06T08:08:07;10.30;;;4.78;;
63012;SDS011;62113;45.624;11.700;2023-04-06T08:10:33;9.73;;;6.30;;
63012;SDS011;62113;45.624;11.700;2023-04-06T08:15:25;6.38;;;5.10;;
63012;SDS011;62113;45.624;11.700;2023-04-06T08:17:51;7.18;;;4.43;;
63012;SDS011;62113;45.624;11.700;2023-04-06T08:20:16;15.32;;;4.57;;
63012;SDS011;62113;45.624;11.700;2023-04-06T08:22:42;9.00;;;4.35;;
63012;SDS011;62113;45.624;11.700;2023-04-06T08:25:08;9.25;;;4.25;;
63012;SDS011;62113;45.624;11.700;2023-04-06T08:27:33;5.45;;;3.80;;
63012;SDS011;62113;45.624;11.700;2023-04-06T08:29:59;10.02;;;4.10;;
63012;SDS011;62113;45.624;11.700;2023-04-06T08:32:25;14.15;;;4.32;;
63012;SDS011;62113;45.624;11.700;2023-04-06T08:34:52;5.70;;;4.05;;
63012;SDS011;62113;45.624;11.700;2023-04-06T08:37:19;5.20;;;4.00;;
63012;SDS011;62113;45.624;11.700;2023-04-06T08:39:44;8.32;;;3.72;;
63012;SDS011;62113;45.624;11.700;2023-04-06T08:42:12;6.82;;;4.00;;
63012;SDS011;62113;45.624;11.700;2023-04-06T08:44:43;7.75;;;4.28;;
63012;SDS011;62113;45.624;11.700;2023-04-06T08:47:10;9.88;;;4.63;;
63012;SDS011;62113;45.624;11.700;2023-04-06T08:52:04;8.63;;;3.80;;
63012;SDS011;62113;45.624;11.700;2023-04-06T08:54:32;7.50;;;4.28;;
63012;SDS011;62113;45.624;11.700;2023-04-06T08:56:57;13.50;;;4.27;;
63012;SDS011;62113;45.624;11.700;2023-04-06T08:59:23;6.13;;;4.35;;
63012;SDS011;62113;45.624;11.700;2023-04-06T09:01:50;7.43;;;4.20;;
63012;SDS011;62113;45.624;11.700;2023-04-06T09:04:17;6.18;;;3.97;;
63012;SDS011;62113;45.624;11.700;2023-04-06T09:06:43;6.87;;;4.00;;
63012;SDS011;62113;45.624;11.700;2023-04-06T09:09:09;7.73;;;4.30;;
63012;SDS011;62113;45.624;11.700;2023-04-06T09:11:47;7.03;;;4.23;;
63012;SDS011;62113;45.624;11.700;2023-04-06T09:14:15;7.03;;;3.67;;
63012;SDS011;62113;45.624;11.700;2023-04-06T09:19:08;5.75;;;3.95;;
63012;SDS011;62113;45.624;11.700;2023-04-06T09:21:35;6.70;;;4.40;;
63012;SDS011;62113;45.624;11.700;2023-04-06T09:24:02;6.07;;;4.53;;
63012;SDS011;62113;45.624;11.700;2023-04-06T09:26:28;9.30;;;4.45;;
63012;SDS011;62113;45.624;11.700;2023-04-06T09:28:54;5.03;;;3.80;;
63012;SDS011;62113;45.624;11.700;2023-04-06T09:33:48;8.48;;;3.92;;
63012;SDS011;62113;45.624;11.700;2023-04-06T09:36:14;7.83;;;4.40;;
63012;SDS011;62113;45.624;11.700;2023-04-06T09:41:26;8.25;;;4.53;;
63012;SDS011;62113;45.624;11.700;2023-04-06T09:44:03;9.95;;;3.95;;
63012;SDS011;62113;45.624;11.700;2023-04-06T09:46:31;6.88;;;3.63;;
63012;SDS011;62113;45.624;11.700;2023-04-06T09:49:03;9.52;;;4.10;;
63012;SDS011;62113;45.624;11.700;2023-04-06T09:51:31;8.82;;;4.40;;
63012;SDS011;62113;45.624;11.700;2023-04-06T09:54:01;18.00;;;4.80;;
63012;SDS011;62113;45.624;11.700;2023-04-06T09:56:31;7.03;;;4.63;;
63012;SDS011;62113;45.624;11.700;2023-04-06T09:59:05;6.68;;;4.35;;
63012;SDS011;62113;45.624;11.700;2023-04-06T10:01:37;10.27;;;4.85;;
63012;SDS011;62113;45.624;11.700;2023-04-06T10:06:39;9.13;;;4.97;;
63012;SDS011;62113;45.624;11.700;2023-04-06T10:09:06;10.97;;;4.47;;
63012;SDS011;62113;45.624;11.700;2023-04-06T10:11:33;8.68;;;4.60;;
63012;SDS011;62113;45.624;11.700;2023-04-06T10:13:59;6.65;;;4.90;;
63012;SDS011;62113;45.624;11.700;2023-04-06T10:16:26;5.20;;;4.43;;
63012;SDS011;62113;45.624;11.700;2023-04-06T10:18:54;6.45;;;4.68;;
63012;SDS011;62113;45.624;11.700;2023-04-06T10:21:26;7.45;;;4.88;;
63012;SDS011;62113;45.624;11.700;2023-04-06T10:23:55;9.27;;;5.07;;
63012;SDS011;62113;45.624;11.700;2023-04-06T10:26:24;7.80;;;5.28;;
63012;SDS011;62113;45.624;11.700;2023-04-06T10:28:50;9.50;;;5.03;;
63012;SDS011;62113;45.624;11.700;2023-04-06T10:31:23;11.60;;;5.13;;
63012;SDS011;62113;45.624;11.700;2023-04-06T10:34:00;13.45;;;4.70;;
63012;SDS011;62113;45.624;11.700;2023-04-06T10:36:28;7.00;;;4.70;;
63012;SDS011;62113;45.624;11.700;2023-04-06T10:38:57;7.53;;;5.05;;
63012;SDS011;62113;45.624;11.700;2023-04-06T10:41:31;8.25;;;4.93;;
63012;SDS011;62113;45.624;11.700;2023-04-06T10:44:00;6.28;;;4.65;;
63012;SDS011;62113;45.624;11.700;2023-04-06T10:46:27;8.73;;;5.63;;
63012;SDS011;62113;45.624;11.700;2023-04-06T10:48:55;18.50;;;5.45;;
63012;SDS011;62113;45.624;11.700;2023-04-06T10:51:24;8.65;;;5.15;;
63012;SDS011;62113;45.624;11.700;2023-04-06T10:53:52;8.85;;;5.20;;
63012;SDS011;62113;45.624;11.700;2023-04-06T10:56:21;12.13;;;5.97;;
63012;SDS011;62113;45.624;11.700;2023-04-06T10:58:48;12.27;;;6.18;;
63012;SDS011;62113;45.624;11.700;2023-04-06T11:01:19;7.03;;;5.43;;
63012;SDS011;62113;45.624;11.700;2023-04-06T11:03:46;7.25;;;5.30;;
63012;SDS011;62113;45.624;11.700;2023-04-06T11:06:23;8.05;;;5.78;;
63012;SDS011;62113;45.624;11.700;2023-04-06T11:08:54;8.77;;;5.55;;
63012;SDS011;62113;45.624;11.700;2023-04-06T11:11:21;12.75;;;5.57;;
63012;SDS011;62113;45.624;11.700;2023-04-06T11:18:55;7.15;;;5.70;;
63012;SDS011;62113;45.624;11.700;2023-04-06T11:26:45;9.20;;;6.30;;
63012;SDS011;62113;45.624;11.700;2023-04-06T11:29:21;7.47;;;5.50;;
63012;SDS011;62113;45.624;11.700;2023-04-06T11:31:50;7.68;;;5.47;;
63012;SDS011;62113;45.624;11.700;2023-04-06T11:34:23;17.10;;;5.55;;
63012;SDS011;62113;45.624;11.700;2023-04-06T11:37:00;7.25;;;5.78;;
63012;SDS011;62113;45.624;11.700;2023-04-06T11:39:28;8.18;;;5.88;;
63012;SDS011;62113;45.624;11.700;2023-04-06T11:47:00;8.07;;;5.90;;
63012;SDS011;62113;45.624;11.700;2023-04-06T11:49:31;7.45;;;5.72;;
63012;SDS011;62113;45.624;11.700;2023-04-06T11:54:33;8.75;;;5.88;;
63012;SDS011;62113;45.624;11.700;2023-04-06T11:57:00;9.63;;;6.28;;
63012;SDS011;62113;45.624;11.700;2023-04-06T11:59:26;11.15;;;6.47;;
63012;SDS011;62113;45.624;11.700;2023-04-06T12:01:52;9.73;;;6.67;;
63012;SDS011;62113;45.624;11.700;2023-04-06T12:04:18;10.37;;;6.57;;
63012;SDS011;62113;45.624;11.700;2023-04-06T12:06:44;11.27;;;6.50;;
63012;SDS011;62113;45.624;11.700;2023-04-06T12:09:10;7.77;;;5.93;;
63012;SDS011;62113;45.624;11.700;2023-04-06T12:11:36;9.00;;;5.77;;
63012;SDS011;62113;45.624;11.700;2023-04-06T12:14:01;6.87;;;5.87;;
63012;SDS011;62113;45.624;11.700;2023-04-06T12:16:29;8.68;;;6.28;;
63012;SDS011;62113;45.624;11.700;2023-04-06T12:18:59;7.40;;;6.43;;
63012;SDS011;62113;45.624;11.700;2023-04-06T12:23:52;10.98;;;6.80;;
63012;SDS011;62113;45.624;11.700;2023-04-06T12:26:18;12.10;;;6.40;;
63012;SDS011;62113;45.624;11.700;2023-04-06T12:28:43;17.07;;;6.90;;
63012;SDS011;62113;45.624;11.700;2023-04-06T12:31:16;7.13;;;4.55;;
63012;SDS011;62113;45.624;11.700;2023-04-06T12:33:43;9.25;;;6.18;;
63012;SDS011;62113;45.624;11.700;2023-04-06T12:36:13;11.55;;;6.43;;
63012;SDS011;62113;45.624;11.700;2023-04-06T12:38:40;12.52;;;6.35;;
63012;SDS011;62113;45.624;11.700;2023-04-06T12:41:06;9.93;;;6.82;;
63012;SDS011;62113;45.624;11.700;2023-04-06T12:43:32;12.13;;;6.57;;
63012;SDS011;62113;45.624;11.700;2023-04-06T12:45:58;9.40;;;5.63;;
63012;SDS011;62113;45.624;11.700;2023-04-06T12:48:24;14.63;;;6.72;;
63012;SDS011;62113;45.624;11.700;2023-04-06T12:50:57;11.37;;;6.53;;
63012;SDS011;62113;45.624;11.700;2023-04-06T12:53:23;12.18;;;7.45;;
63012;SDS011;62113;45.624;11.700;2023-04-06T12:55:49;12.35;;;6.22;;
63012;SDS011;62113;45.624;11.700;2023-04-06T12:58:16;9.32;;;6.53;;
63012;SDS011;62113;45.624;11.700;2023-04-06T13:00:42;15.13;;;6.63;;
63012;SDS011;62113;45.624;11.700;2023-04-06T13:03:08;10.37;;;6.67;;
63012;SDS011;62113;45.624;11.700;2023-04-06T13:05:34;10.43;;;7.33;;
63012;SDS011;62113;45.624;11.700;2023-04-06T13:07:59;9.27;;;6.90;;
63012;SDS011;62113;45.624;11.700;2023-04-06T13:10:25;13.00;;;6.97;;
63012;SDS011;62113;45.624;11.700;2023-04-06T13:12:51;13.23;;;7.07;;
63012;SDS011;62113;45.624;11.700;2023-04-06T13:15:17;12.27;;;6.83;;
63012;SDS011;62113;45.624;11.700;2023-04-06T13:17:43;13.93;;;6.90;;
63012;SDS011;62113;45.624;11.700;2023-04-06T13:20:08;10.27;;;6.73;;
63012;SDS011;62113;45.624;11.700;2023-04-06T13:22:34;8.90;;;6.67;;
63012;SDS011;62113;45.624;11.700;2023-04-06T13:25:01;8.13;;;6.45;;
63012;SDS011;62113;45.624;11.700;2023-04-06T13:27:26;8.93;;;6.10;;
63012;SDS011;62113;45.624;11.700;2023-04-06T13:29:52;9.10;;;7.30;;
63012;SDS011;62113;45.624;11.700;2023-04-06T13:32:20;14.23;;;6.82;;
63012;SDS011;62113;45.624;11.700;2023-04-06T13:34:45;11.95;;;7.22;;
63012;SDS011;62113;45.624;11.700;2023-04-06T13:37:13;12.18;;;7.78;;
63012;SDS011;62113;45.624;11.700;2023-04-06T13:39:40;12.48;;;7.00;;
63012;SDS011;62113;45.624;11.700;2023-04-06T13:42:06;12.63;;;7.53;;
63012;SDS011;62113;45.624;11.700;2023-04-06T13:44:32;9.07;;;7.23;;
63012;SDS011;62113;45.624;11.700;2023-04-06T13:46:58;9.53;;;6.57;;
63012;SDS011;62113;45.624;11.700;2023-04-06T13:49:24;13.50;;;8.30;;
63012;SDS011;62113;45.624;11.700;2023-04-06T13:51:50;10.87;;;8.07;;
63012;SDS011;62113;45.624;11.700;2023-04-06T13:54:16;9.70;;;6.63;;
63012;SDS011;62113;45.624;11.700;2023-04-06T13:56:41;13.97;;;7.63;;
63012;SDS011;62113;45.624;11.700;2023-04-06T13:59:07;14.93;;;8.17;;
63012;SDS011;62113;45.624;11.700;2023-04-06T14:01:32;11.97;;;7.93;;
63012;SDS011;62113;45.624;11.700;2023-04-06T14:03:58;9.80;;;7.50;;
63012;SDS011;62113;45.624;11.700;2023-04-06T14:06:24;17.00;;;7.73;;
63012;SDS011;62113;45.624;11.700;2023-04-06T14:08:50;12.67;;;8.50;;
63012;SDS011;62113;45.624;11.700;2023-04-06T14:11:16;12.05;;;7.70;;
63012;SDS011;62113;45.624;11.700;2023-04-06T14:13:42;8.87;;;7.07;;
63012;SDS011;62113;45.624;11.700;2023-04-06T14:16:08;11.43;;;8.07;;
63012;SDS011;62113;45.624;11.700;2023-04-06T14:18:33;13.97;;;8.03;;
63012;SDS011;62113;45.624;11.700;2023-04-06T14:20:59;10.43;;;7.83;;
63012;SDS011;62113;45.624;11.700;2023-04-06T14:23:26;12.15;;;8.23;;
63012;SDS011;62113;45.624;11.700;2023-04-06T14:26:05;12.48;;;7.50;;
63012;SDS011;62113;45.624;11.700;2023-04-06T14:28:33;11.18;;;7.53;;
63012;SDS011;62113;45.624;11.700;2023-04-06T14:30:59;13.30;;;5.93;;
63012;SDS011;62113;45.624;11.700;2023-04-06T14:33:27;15.73;;;7.38;;
63012;SDS011;62113;45.624;11.700;2023-04-06T14:35:53;19.97;;;8.10;;
63012;SDS011;62113;45.624;11.700;2023-04-06T14:38:19;11.90;;;7.90;;
63012;SDS011;62113;45.624;11.700;2023-04-06T14:40:44;9.67;;;7.63;;
63012;SDS011;62113;45.624;11.700;2023-04-06T14:43:10;15.77;;;7.30;;
63012;SDS011;62113;45.624;11.700;2023-04-06T14:45:35;12.23;;;7.23;;
63012;SDS011;62113;45.624;11.700;2023-04-06T14:48:03;13.18;;;7.72;;
63012;SDS011;62113;45.624;11.700;2023-04-06T14:50:30;13.68;;;7.68;;
63012;SDS011;62113;45.624;11.700;2023-04-06T14:52:56;21.90;;;9.97;;
63012;SDS011;62113;45.624;11.700;2023-04-06T14:55:22;15.03;;;7.90;;
63012;SDS011;62113;45.624;11.700;2023-04-06T14:57:47;10.47;;;8.03;;